createdAt,value
2019-04-30T00:00:08.457Z,10.50
2019-04-30T00:02:45.368Z,10.52
2019-04-30T00:05:15.186Z,10.36
2019-04-30T00:07:41.462Z,10.47
2019-04-30T00:10:08.915Z,10.37
2019-04-30T00:12:39.415Z,10.39
2019-04-30T00:15:06.237Z,10.35
2019-04-30T00:17:35.920Z,10.40
2019-04-30T00:20:07.471Z,10.69
2019-04-30T00:22:39.369Z,10.54
2019-04-30T00:25:05.267Z,10.45
2019-04-30T00:27:33.067Z,10.47
2019-04-30T00:30:04.836Z,10.57
2019-04-30T00:32:30.577Z,10.81
2019-04-30T00:34:57.984Z,10.59
2019-04-30T00:37:26.826Z,10.61
2019-04-30T00:39:55.506Z,10.52
2019-04-30T00:42:24.271Z,10.53
2019-04-30T00:44:52.070Z,10.52
2019-04-30T00:47:19.101Z,10.51
2019-04-30T00:49:47.230Z,10.53
2019-04-30T00:52:15.390Z,10.62
2019-04-30T00:54:42.746Z,10.64
2019-04-30T00:57:09.839Z,10.59
2019-04-30T00:59:39.867Z,10.56
2019-04-30T01:02:28.891Z,10.64
2019-04-30T01:04:52.236Z,10.52
2019-04-30T01:07:19.472Z,10.53
2019-04-30T01:09:49.743Z,10.61
2019-04-30T01:12:27.675Z,10.92
2019-04-30T01:14:46.784Z,10.85
2019-04-30T01:17:13.866Z,10.76
2019-04-30T01:19:46.068Z,10.55
2019-04-30T01:22:11.396Z,10.69
2019-04-30T01:24:41.119Z,10.98
2019-04-30T01:27:10.468Z,10.97
2019-04-30T01:29:40.860Z,10.87
2019-04-30T01:32:10.485Z,10.73
2019-04-30T01:34:36.939Z,10.66
2019-04-30T01:37:04.020Z,10.64
2019-04-30T01:39:31.701Z,10.55
2019-04-30T01:42:02.948Z,10.48
2019-04-30T01:44:29.521Z,10.52
2019-04-30T01:46:56.645Z,10.55
2019-04-30T01:49:25.696Z,10.45
2019-04-30T01:51:57.407Z,10.68
2019-04-30T01:54:24.313Z,10.65
2019-04-30T01:57:13.443Z,10.77
2019-04-30T02:00:20.319Z,10.60
2019-04-30T02:02:49.420Z,10.39
2019-04-30T02:05:16.439Z,10.32
2019-04-30T02:07:45.923Z,10.26
2019-04-30T02:10:12.931Z,10.31
2019-04-30T02:12:40.193Z,10.32
2019-04-30T02:15:09.351Z,10.30
2019-04-30T02:17:38.687Z,10.33
2019-04-30T02:20:06.580Z,10.41
2019-04-30T02:22:33.635Z,10.79
2019-04-30T02:25:00.690Z,10.82
2019-04-30T02:27:29.419Z,10.61
2019-04-30T02:29:59.487Z,10.29
2019-04-30T02:32:26.665Z,10.30
2019-04-30T02:35:13.471Z,10.30
2019-04-30T02:38:01.355Z,10.27
2019-04-30T02:40:31.339Z,10.21
2019-04-30T02:43:01.769Z,10.29
2019-04-30T02:45:30.011Z,10.38
2019-04-30T02:47:59.383Z,10.40
2019-04-30T02:50:29.380Z,10.59
2019-04-30T02:53:09.733Z,10.78
2019-04-30T02:55:42.400Z,11.05
2019-04-30T02:58:10.171Z,10.91
2019-04-30T03:00:39.412Z,10.59
2019-04-30T03:03:06.498Z,10.54
2019-04-30T03:05:33.541Z,10.61
2019-04-30T03:08:01.518Z,10.51
2019-04-30T03:10:30.318Z,10.60
2019-04-30T03:12:59.982Z,10.86
2019-04-30T03:15:29.911Z,10.44
2019-04-30T03:18:04.007Z,10.33
2019-04-30T03:20:56.278Z,10.69
2019-04-30T03:23:23.326Z,10.62
2019-04-30T03:25:50.703Z,10.66
2019-04-30T03:28:20.280Z,10.74
2019-04-30T03:30:56.233Z,10.77
2019-04-30T03:33:22.357Z,10.71
2019-04-30T03:35:48.242Z,10.44
2019-04-30T03:38:15.498Z,10.32
2019-04-30T03:40:42.540Z,10.19
2019-04-30T03:43:10.824Z,10.30
2019-04-30T03:45:40.195Z,10.40
2019-04-30T03:48:10.219Z,10.36
2019-04-30T03:50:50.239Z,10.28
2019-04-30T03:53:06.241Z,10.23
2019-04-30T03:55:33.615Z,10.28
2019-04-30T03:58:00.928Z,10.19
2019-04-30T04:00:50.051Z,10.22
2019-04-30T04:03:16.822Z,10.12
2019-04-30T04:06:14.277Z,10.15
2019-04-30T04:08:52.861Z,10.12
2019-04-30T04:11:23.888Z,10.12
2019-04-30T04:13:50.934Z,10.21
2019-04-30T04:16:19.478Z,10.24
2019-04-30T04:18:49.814Z,10.31
2019-04-30T04:21:17.155Z,10.33
2019-04-30T04:23:46.295Z,10.33
2019-04-30T04:26:13.549Z,10.33
2019-04-30T04:28:43.195Z,10.31
2019-04-30T04:31:12.774Z,10.28
2019-04-30T04:33:39.989Z,10.26
2019-04-30T04:36:09.166Z,10.27
2019-04-30T04:38:40.294Z,10.23
2019-04-30T04:41:10.100Z,10.35
2019-04-30T04:43:36.212Z,10.30
2019-04-30T04:46:05.723Z,10.38
2019-04-30T04:48:44.400Z,10.79
2019-04-30T04:51:27.875Z,10.68
2019-04-30T04:53:40.553Z,10.70
2019-04-30T04:56:10.104Z,10.94
2019-04-30T04:58:36.955Z,10.97
2019-04-30T05:01:04.138Z,11.24
2019-04-30T05:03:40.488Z,11.40
2019-04-30T05:06:39.507Z,11.44
2019-04-30T05:09:09.699Z,11.27
2019-04-30T05:11:39.543Z,10.97
2019-04-30T05:14:08.368Z,11.21
2019-04-30T05:16:35.712Z,11.19
2019-04-30T05:19:02.744Z,11.19
2019-04-30T05:21:41.729Z,11.61
2019-04-30T05:23:59.131Z,12.19
2019-04-30T05:26:26.363Z,12.20
2019-04-30T05:28:53.446Z,12.46
2019-04-30T05:31:22.343Z,11.57
2019-04-30T05:33:49.406Z,11.26
2019-04-30T05:36:19.195Z,11.23
2019-04-30T05:38:46.555Z,11.21
2019-04-30T05:41:13.684Z,11.41
2019-04-30T05:43:42.008Z,11.23
2019-04-30T05:46:11.019Z,11.33
2019-04-30T05:48:39.860Z,11.77
2019-04-30T05:51:08.990Z,11.90
2019-04-30T05:53:36.229Z,11.63
2019-04-30T05:56:03.374Z,11.71
2019-04-30T05:58:30.421Z,11.80
2019-04-30T06:00:59.722Z,11.66
2019-04-30T06:03:32.910Z,12.36
2019-04-30T06:05:58.940Z,12.63
2019-04-30T06:08:29.335Z,12.74
2019-04-30T06:11:05.989Z,12.52
2019-04-30T06:13:52.435Z,12.56
2019-04-30T06:16:21.521Z,11.68
2019-04-30T06:18:48.609Z,11.89
2019-04-30T06:21:15.641Z,11.42
2019-04-30T06:23:46.797Z,11.39
2019-04-30T06:26:14.057Z,11.46
2019-04-30T06:28:42.019Z,11.66
2019-04-30T06:31:09.202Z,11.93
2019-04-30T06:33:38.857Z,11.45
2019-04-30T06:36:08.555Z,11.66
2019-04-30T06:38:35.629Z,11.58
2019-04-30T06:41:05.684Z,11.28
2019-04-30T06:43:32.928Z,11.37
2019-04-30T06:46:00.167Z,11.55
2019-04-30T06:48:29.616Z,11.44
2019-04-30T06:50:56.623Z,11.53
2019-04-30T06:53:23.664Z,12.14
2019-04-30T06:55:50.715Z,12.19
2019-04-30T06:58:20.274Z,12.41
2019-04-30T07:00:46.822Z,12.12
2019-04-30T07:03:14.977Z,12.30
2019-04-30T07:05:44.049Z,12.08
2019-04-30T07:08:39.140Z,12.56
2019-04-30T07:11:19.407Z,12.14
2019-04-30T07:13:51.781Z,12.39
2019-04-30T07:16:18.978Z,12.63
2019-04-30T07:18:46.438Z,12.61
2019-04-30T07:21:15.777Z,12.50
2019-04-30T07:23:45.489Z,12.50
2019-04-30T07:26:22.742Z,13.28
2019-04-30T07:28:51.485Z,13.26
2019-04-30T07:31:14.655Z,13.88
2019-04-30T07:33:43.134Z,13.50
2019-04-30T07:36:10.458Z,13.83
2019-04-30T07:41:09.537Z,13.95
2019-04-30T07:43:39.393Z,13.15
2019-04-30T07:46:05.925Z,12.96
2019-04-30T07:48:32.973Z,13.12
2019-04-30T07:51:00.071Z,13.77
2019-04-30T07:53:28.229Z,13.83
2019-04-30T07:55:58.694Z,14.22
2019-04-30T07:58:25.814Z,14.47
2019-04-30T08:00:56.269Z,14.45
2019-04-30T08:03:50.128Z,14.54
2019-04-30T08:06:18.979Z,15.01
2019-04-30T08:08:50.714Z,13.84
2019-04-30T08:09:35.036Z,14.02
2019-04-30T08:11:25.643Z,13.28
2019-04-30T08:13:50.670Z,13.51
2019-04-30T08:16:21.752Z,14.77
2019-04-30T08:18:49.282Z,15.14
2019-04-30T08:21:18.977Z,14.11
2019-04-30T08:23:46.410Z,14.50
2019-04-30T08:26:13.505Z,13.79
2019-04-30T08:28:40.561Z,14.23
2019-04-30T08:31:09.743Z,14.59
2019-04-30T08:33:36.783Z,15.07
2019-04-30T08:36:04.136Z,16.28
2019-04-30T08:38:31.216Z,16.93
2019-04-30T08:41:00.779Z,16.53
2019-04-30T08:43:29.228Z,15.21
2019-04-30T08:46:00.095Z,14.38
2019-04-30T08:48:41.922Z,15.89
2019-04-30T08:50:59.162Z,15.28
2019-04-30T08:53:30.599Z,15.23
2019-04-30T08:55:55.917Z,14.63
2019-04-30T08:58:23.382Z,14.77
2019-04-30T09:00:50.452Z,15.89
2019-04-30T09:03:19.398Z,15.72
2019-04-30T09:06:03.416Z,15.10
2019-04-30T09:08:30.688Z,15.82
2019-04-30T09:10:59.578Z,15.08
2019-04-30T09:13:28.693Z,15.53
2019-04-30T09:15:55.741Z,16.14
2019-04-30T09:18:22.897Z,15.98
2019-04-30T09:20:50.222Z,15.22
2019-04-30T09:23:18.722Z,15.65
2019-04-30T09:25:45.979Z,15.24
2019-04-30T09:28:13.140Z,15.65
2019-04-30T09:30:40.170Z,15.55
2019-04-30T09:33:10.908Z,15.65
2019-04-30T09:35:36.371Z,16.10
2019-04-30T09:38:03.714Z,16.06
2019-04-30T09:40:32.551Z,16.44
2019-04-30T09:43:00.420Z,15.77
2019-04-30T09:45:28.540Z,15.54
2019-04-30T09:47:55.792Z,16.11
2019-04-30T09:50:24.778Z,16.57
2019-04-30T09:52:52.054Z,17.11
2019-04-30T09:55:19.459Z,17.46
2019-04-30T09:57:46.571Z,17.15
2019-04-30T10:00:14.148Z,17.46
2019-04-30T10:02:41.383Z,17.41
2019-04-30T10:05:10.233Z,17.48
2019-04-30T10:07:39.365Z,18.55
2019-04-30T10:10:09.414Z,18.16
2019-04-30T10:12:36.191Z,16.87
2019-04-30T10:15:03.622Z,18.46
2019-04-30T10:17:38.742Z,17.65
2019-04-30T10:20:08.792Z,18.57
2019-04-30T10:22:35.871Z,18.58
2019-04-30T10:25:04.511Z,18.74
2019-04-30T10:27:31.986Z,20.45
2019-04-30T10:29:59.460Z,21.72
2019-04-30T10:32:26.754Z,22.36
2019-04-30T10:34:53.821Z,22.11
2019-04-30T10:37:21.110Z,22.61
2019-04-30T10:39:48.961Z,20.60
2019-04-30T10:42:17.307Z,19.15
2019-04-30T10:44:44.350Z,18.68
2019-04-30T10:47:11.656Z,18.62
2019-04-30T10:49:39.034Z,19.97
2019-04-30T10:52:06.456Z,21.03
2019-04-30T10:54:34.663Z,22.08
2019-04-30T10:57:02.922Z,20.67
2019-04-30T10:59:30.006Z,21.37
2019-04-30T11:01:59.076Z,22.97
2019-04-30T11:04:26.058Z,21.65
2019-04-30T11:06:53.203Z,20.69
2019-04-30T11:09:20.382Z,19.90
2019-04-30T11:11:49.578Z,18.25
2019-04-30T11:14:16.771Z,18.42
2019-04-30T11:16:44.008Z,19.53
2019-04-30T11:19:11.594Z,19.97
2019-04-30T11:21:42.860Z,20.94
2019-04-30T11:24:10.421Z,22.58
2019-04-30T11:26:40.349Z,22.48
2019-04-30T11:29:06.844Z,22.72
2019-04-30T11:32:04.310Z,22.97
2019-04-30T11:34:31.702Z,22.91
2019-04-30T11:37:00.569Z,21.96
2019-04-30T11:39:29.635Z,23.74
2019-04-30T11:42:01.004Z,26.38
2019-04-30T11:44:44.769Z,23.90
2019-04-30T11:47:25.182Z,24.39
2019-04-30T11:49:52.556Z,20.80
2019-04-30T11:52:20.144Z,22.04
2019-04-30T11:54:51.607Z,24.00
2019-04-30T11:57:20.964Z,23.87
2019-04-30T11:59:48.341Z,21.04
2019-04-30T12:02:24.072Z,19.63
2019-04-30T12:04:51.265Z,22.18
2019-04-30T12:07:38.718Z,22.06
2019-04-30T12:10:25.943Z,21.57
2019-04-30T12:12:53.015Z,20.80
2019-04-30T12:15:20.172Z,22.84
2019-04-30T12:17:49.073Z,22.66
2019-04-30T12:20:20.805Z,22.66
2019-04-30T12:22:49.407Z,24.18
2019-04-30T12:25:18.584Z,23.68
2019-04-30T12:27:45.690Z,22.93
2019-04-30T12:30:14.586Z,24.46
2019-04-30T12:32:41.773Z,23.52
2019-04-30T12:35:11.737Z,24.22
2019-04-30T12:37:39.784Z,22.62
2019-04-30T12:40:25.855Z,22.10
2019-04-30T12:42:45.913Z,23.50
2019-04-30T12:46:02.269Z,23.34
2019-04-30T12:52:16.659Z,24.22
2019-04-30T12:54:58.005Z,21.66
2019-04-30T12:57:56.194Z,25.44
2019-04-30T13:00:20.704Z,25.88
2019-04-30T13:02:52.832Z,23.85
2019-04-30T13:08:20.755Z,23.67
2019-04-30T13:10:53.578Z,25.13
2019-04-30T13:13:21.547Z,21.60
2019-04-30T13:15:48.919Z,23.95
2019-04-30T13:18:22.543Z,23.02
2019-04-30T13:20:54.666Z,22.08
2019-04-30T13:23:24.680Z,24.97
2019-04-30T13:25:51.906Z,23.20
2019-04-30T13:28:22.643Z,23.90
2019-04-30T13:31:09.274Z,26.33
2019-04-30T13:33:46.005Z,26.18
2019-04-30T13:36:19.889Z,27.94
2019-04-30T13:39:06.182Z,26.16
2019-04-30T13:41:43.680Z,27.57
2019-04-30T13:44:17.019Z,25.19
2019-04-30T13:46:44.176Z,28.54
2019-04-30T13:49:11.262Z,25.62
2019-04-30T13:51:38.332Z,25.48
2019-04-30T13:54:05.483Z,23.18
2019-04-30T13:56:34.352Z,25.04
2019-04-30T13:59:01.474Z,22.60
2019-04-30T14:01:29.446Z,24.72
2019-04-30T14:04:19.165Z,26.15
2019-04-30T14:07:02.051Z,25.21
2019-04-30T14:09:30.248Z,24.39
2019-04-30T14:11:57.326Z,24.96
2019-04-30T14:14:24.603Z,24.31
2019-04-30T14:16:52.001Z,24.90
2019-04-30T14:19:19.623Z,29.57
2019-04-30T14:21:49.242Z,29.02
2019-04-30T14:24:16.678Z,29.69
2019-04-30T14:26:44.063Z,27.19
2019-04-30T14:29:11.286Z,28.00
2019-04-30T14:31:38.829Z,28.84
2019-04-30T14:34:05.910Z,30.07
2019-04-30T14:36:33.029Z,28.12
2019-04-30T14:39:13.538Z,27.53
2019-04-30T14:41:33.165Z,25.50
2019-04-30T14:44:07.879Z,25.08
2019-04-30T14:46:52.959Z,25.44
2019-04-30T14:49:59.743Z,25.25
2019-04-30T14:52:19.544Z,26.08
2019-04-30T14:55:08.872Z,26.05
2019-04-30T14:57:55.680Z,26.90
2019-04-30T15:00:44.918Z,27.82
2019-04-30T15:03:14.431Z,26.17
2019-04-30T15:05:48.494Z,27.06
2019-04-30T15:08:10.753Z,27.24
2019-04-30T15:10:37.910Z,25.81
2019-04-30T15:13:09.588Z,27.01
2019-04-30T15:15:39.292Z,27.91
2019-04-30T15:18:09.237Z,24.46
2019-04-30T15:20:36.570Z,20.63
2019-04-30T15:23:30.227Z,22.40
2019-04-30T15:25:59.153Z,24.90
2019-04-30T15:28:32.478Z,24.32
2019-04-30T15:31:26.434Z,24.96
2019-04-30T15:34:03.229Z,23.40
2019-04-30T15:36:35.759Z,24.01
2019-04-30T15:39:24.590Z,25.55
2019-04-30T15:41:54.102Z,27.94
2019-04-30T15:44:30.925Z,26.64
2019-04-30T15:47:08.929Z,24.96
2019-04-30T15:49:36.601Z,26.72
2019-04-30T15:52:04.426Z,25.56
2019-04-30T15:54:31.568Z,22.67
2019-04-30T15:57:00.411Z,22.02
2019-04-30T15:59:39.509Z,24.57
2019-04-30T16:02:21.946Z,24.08
2019-04-30T16:05:02.479Z,25.34
2019-04-30T16:07:32.475Z,24.76
2019-04-30T16:10:54.363Z,24.61
2019-04-30T16:13:33.682Z,24.31
2019-04-30T16:16:00.770Z,23.63
2019-04-30T16:18:34.498Z,22.91
2019-04-30T16:21:01.588Z,22.01
2019-04-30T16:23:28.939Z,22.08
2019-04-30T16:25:56.001Z,23.57
2019-04-30T16:28:23.096Z,22.41
2019-04-30T16:30:50.365Z,22.41
2019-04-30T16:33:20.481Z,21.69
2019-04-30T16:35:50.880Z,23.12
2019-04-30T16:38:20.950Z,23.65
2019-04-30T16:40:58.510Z,23.28
2019-04-30T16:44:19.169Z,22.23
2019-04-30T16:46:49.377Z,23.07
2019-04-30T16:49:18.537Z,23.56
2019-04-30T16:51:49.910Z,23.54
2019-04-30T16:54:18.706Z,23.64
2019-04-30T16:56:52.366Z,22.46
2019-04-30T16:59:23.250Z,21.62
2019-04-30T17:01:57.798Z,21.69
2019-04-30T17:04:49.390Z,21.47
2019-04-30T17:07:38.687Z,21.61
2019-04-30T17:10:18.885Z,21.12
2019-04-30T17:13:40.023Z,22.12
2019-04-30T17:16:11.324Z,21.63
2019-04-30T17:18:38.793Z,20.86
2019-04-30T17:21:09.756Z,19.77
2019-04-30T17:23:36.637Z,19.19
2019-04-30T17:26:03.755Z,18.77
2019-04-30T17:28:31.928Z,18.47
2019-04-30T17:30:59.014Z,18.32
2019-04-30T17:33:26.073Z,18.10
2019-04-30T17:35:53.156Z,18.08
2019-04-30T17:38:20.247Z,17.89
2019-04-30T17:40:49.678Z,18.67
2019-04-30T17:43:16.287Z,19.56
2019-04-30T17:45:52.878Z,19.82
2019-04-30T17:48:19.903Z,20.23
2019-04-30T17:50:47.070Z,19.87
2019-04-30T17:53:14.522Z,19.60
2019-04-30T17:55:50.029Z,19.29
2019-04-30T17:58:20.427Z,19.36
2019-04-30T18:00:51.248Z,19.77
2019-04-30T18:03:19.542Z,19.45
2019-04-30T18:05:49.182Z,18.89
2019-04-30T18:08:16.891Z,18.90
2019-04-30T18:10:44.930Z,18.82
2019-04-30T18:13:12.503Z,18.54
2019-04-30T18:15:39.564Z,18.37
2019-04-30T18:18:20.877Z,17.79
2019-04-30T18:21:05.029Z,17.37
2019-04-30T18:23:53.859Z,17.04
2019-04-30T18:27:01.352Z,16.95
2019-04-30T18:29:29.415Z,16.70
2019-04-30T18:31:56.481Z,16.53
2019-04-30T18:34:23.583Z,16.29
2019-04-30T18:36:51.277Z,16.13
2019-04-30T18:39:18.925Z,16.18
2019-04-30T18:41:46.468Z,15.92
2019-04-30T18:44:13.772Z,15.86
2019-04-30T18:46:41.050Z,15.84
2019-04-30T18:49:11.338Z,15.68
2019-04-30T18:51:42.121Z,15.58
2019-04-30T18:54:07.944Z,15.61
2019-04-30T18:56:35.183Z,15.59
2019-04-30T18:59:02.488Z,15.40
2019-04-30T19:01:29.571Z,15.25
2019-04-30T19:03:58.454Z,15.12
2019-04-30T19:06:26.437Z,15.14
2019-04-30T19:09:29.680Z,14.96
2019-04-30T19:12:08.533Z,14.90
2019-04-30T19:14:49.222Z,14.66
2019-04-30T19:17:49.466Z,14.60
2019-04-30T19:20:26.388Z,14.56
2019-04-30T19:22:53.644Z,14.46
2019-04-30T19:25:21.512Z,14.57
2019-04-30T19:27:48.746Z,14.45
2019-04-30T19:30:19.280Z,14.29
2019-04-30T19:32:49.208Z,14.23
2019-04-30T19:35:18.774Z,14.25
2019-04-30T19:37:46.209Z,14.21
2019-04-30T19:40:13.350Z,13.99
2019-04-30T19:42:40.709Z,13.90
2019-04-30T19:45:12.019Z,13.95
2019-04-30T19:47:39.069Z,14.07
2019-04-30T19:50:09.384Z,14.05
2019-04-30T19:52:38.629Z,14.01
2019-04-30T19:55:06.085Z,13.92
2019-04-30T19:57:41.068Z,13.88
2019-04-30T20:00:09.311Z,13.92
2019-04-30T20:02:40.403Z,13.97
2019-04-30T20:05:09.007Z,13.82
2019-04-30T20:07:36.561Z,13.89
2019-04-30T20:10:11.647Z,13.79
2019-04-30T20:12:40.288Z,13.75
2019-04-30T20:15:17.186Z,13.62
2019-04-30T20:17:39.552Z,13.65
2019-04-30T20:20:09.116Z,13.46
2019-04-30T20:22:38.835Z,13.46
2019-04-30T20:25:09.168Z,13.52
2019-04-30T20:27:39.675Z,13.46
2019-04-30T20:30:09.549Z,13.23
2019-04-30T20:32:37.054Z,13.07
2019-04-30T20:35:06.618Z,12.93
2019-04-30T20:37:55.390Z,12.83
2019-04-30T20:40:24.667Z,12.68
2019-04-30T20:42:53.447Z,12.62
2019-04-30T20:45:22.771Z,12.69
2019-04-30T20:47:50.384Z,12.62
2019-04-30T20:50:18.750Z,12.41
2019-04-30T20:52:46.000Z,12.74
2019-04-30T20:55:13.320Z,12.69
2019-04-30T20:57:40.479Z,12.64
2019-04-30T21:00:09.725Z,12.52
2019-04-30T21:02:38.833Z,12.53
2019-04-30T21:05:09.781Z,12.52
2019-04-30T21:07:41.804Z,12.82
2019-04-30T21:10:10.156Z,12.93
2019-04-30T21:12:41.162Z,12.91
2019-04-30T21:15:09.665Z,12.86
2019-04-30T21:17:38.672Z,12.60
2019-04-30T21:20:09.618Z,12.44
2019-04-30T21:22:38.831Z,12.42
2019-04-30T21:25:06.647Z,12.49
2019-04-30T21:27:33.799Z,12.33
2019-04-30T21:30:04.189Z,12.22
2019-04-30T21:33:11.531Z,12.19
2019-04-30T21:35:52.581Z,12.29
2019-04-30T21:38:19.818Z,12.58
2019-04-30T21:40:46.887Z,12.66
2019-04-30T21:43:15.786Z,12.76
2019-04-30T21:45:45.143Z,12.71
2019-04-30T21:48:12.200Z,12.57
2019-04-30T21:50:39.838Z,12.29
2019-04-30T21:53:09.836Z,12.50
2019-04-30T21:55:37.149Z,12.51
2019-04-30T21:58:09.378Z,12.25
2019-04-30T22:00:59.410Z,12.17
2019-04-30T22:03:39.790Z,12.24
2019-04-30T22:06:08.468Z,12.09
2019-04-30T22:08:38.687Z,12.12
2019-04-30T22:11:06.548Z,12.34
2019-04-30T22:13:36.161Z,12.00
2019-04-30T22:16:03.567Z,12.03
2019-04-30T22:18:30.647Z,12.07
2019-04-30T22:20:57.712Z,12.13
2019-04-30T22:23:24.783Z,12.03
2019-04-30T22:25:51.813Z,11.90
2019-04-30T22:28:19.247Z,11.85
2019-04-30T22:30:50.407Z,11.91
2019-04-30T22:33:22.692Z,11.96
2019-04-30T22:36:01.961Z,11.86
2019-04-30T22:38:32.623Z,11.86
2019-04-30T22:41:01.520Z,11.73
2019-04-30T22:43:28.566Z,11.53
2019-04-30T22:46:09.839Z,11.52
2019-04-30T22:48:37.359Z,11.53
2019-04-30T22:51:13.327Z,11.48
2019-04-30T22:53:40.686Z,11.47
2019-04-30T22:56:09.483Z,11.42
2019-04-30T22:58:36.914Z,11.42
2019-04-30T23:01:23.014Z,11.40
2019-04-30T23:03:53.209Z,11.46
2019-04-30T23:06:22.617Z,11.46
2019-04-30T23:08:50.408Z,11.45
2019-04-30T23:11:19.249Z,11.49
2019-04-30T23:13:46.361Z,11.35
2019-04-30T23:16:14.625Z,11.34
2019-04-30T23:18:43.796Z,11.25
2019-04-30T23:21:23.751Z,11.24
2019-04-30T23:23:53.605Z,11.23
2019-04-30T23:26:20.697Z,11.25
2019-04-30T23:28:47.831Z,11.30
2019-04-30T23:31:14.913Z,11.21
2019-04-30T23:33:41.974Z,11.09
2019-04-30T23:36:09.150Z,11.02
2019-04-30T23:38:38.666Z,11.03
2019-04-30T23:41:07.796Z,10.90
2019-04-30T23:43:34.880Z,10.78
2019-04-30T23:46:03.577Z,10.65
2019-04-30T23:48:30.755Z,10.52
2019-04-30T23:50:59.285Z,10.44
2019-04-30T23:53:26.351Z,10.33
2019-04-30T23:55:53.508Z,10.26
2019-04-30T23:58:20.585Z,10.23
